createdAt,value
2023-04-15T00:00:58.189Z,2.45
2023-04-15T00:03:25.021Z,2.10
2023-04-15T00:05:51.935Z,2.28
2023-04-15T00:08:18.422Z,2.13
2023-04-15T00:10:46.388Z,2.50
2023-04-15T00:13:12.787Z,2.67
2023-04-15T00:15:39.222Z,2.58
2023-04-15T00:18:05.632Z,2.92
2023-04-15T00:20:32.190Z,3.25
2023-04-15T00:22:59.360Z,2.80
2023-04-15T00:25:26.213Z,2.60
2023-04-15T00:27:52.618Z,1.73
2023-04-15T00:30:19.569Z,2.55
2023-04-15T00:32:46.770Z,2.65
2023-04-15T00:35:13.173Z,2.60
2023-04-15T00:37:39.592Z,2.63
2023-04-15T00:40:07.831Z,2.13
2023-04-15T00:42:34.840Z,1.98
2023-04-15T00:45:01.544Z,2.20
2023-04-15T00:47:29.770Z,2.33
2023-04-15T00:49:56.559Z,2.00
2023-04-15T00:52:22.941Z,2.20
2023-04-15T00:54:52.243Z,2.85
2023-04-15T00:57:19.032Z,2.05
2023-04-15T00:59:45.457Z,2.75
2023-04-15T01:02:12.779Z,2.13
2023-04-15T01:04:39.283Z,2.03
2023-04-15T01:07:05.727Z,2.63
2023-04-15T01:09:33.212Z,1.90
2023-04-15T01:11:59.872Z,2.25
2023-04-15T01:14:26.503Z,2.20
2023-04-15T01:16:53.200Z,2.17
2023-04-15T01:19:19.912Z,1.98
2023-04-15T01:21:46.906Z,2.22
2023-04-15T01:24:16.292Z,2.47
2023-04-15T01:26:44.555Z,1.88
2023-04-15T01:29:11.476Z,2.35
2023-04-15T01:31:38.517Z,2.67
2023-04-15T01:34:04.974Z,2.17
2023-04-15T01:36:31.363Z,2.38
2023-04-15T01:38:58.422Z,2.30
2023-04-15T01:41:28.648Z,2.65
2023-04-15T01:43:55.739Z,1.88
2023-04-15T01:46:23.018Z,2.78
2023-04-15T01:48:49.632Z,2.55
2023-04-15T01:51:16.511Z,2.47
2023-04-15T01:53:42.933Z,2.40
2023-04-15T01:56:09.337Z,2.45
2023-04-15T01:58:35.776Z,2.47
2023-04-15T02:01:03.874Z,2.55
2023-04-15T02:03:31.676Z,2.33
2023-04-15T02:05:58.465Z,2.05
2023-04-15T02:08:24.852Z,2.53
2023-04-15T02:10:51.645Z,2.72
2023-04-15T02:13:18.108Z,1.92
2023-04-15T02:15:52.312Z,2.42
2023-04-15T02:18:19.400Z,2.22
2023-04-15T02:20:46.868Z,2.10
2023-04-15T02:23:13.483Z,2.50
2023-04-15T02:25:39.938Z,2.38
2023-04-15T02:28:06.612Z,2.05
2023-04-15T02:30:33.757Z,2.58
2023-04-15T02:33:02.334Z,2.05
2023-04-15T02:35:28.822Z,2.10
2023-04-15T02:37:55.670Z,3.30
2023-04-15T02:40:22.632Z,2.00
2023-04-15T02:42:49.085Z,2.28
2023-04-15T02:45:19.228Z,1.80
2023-04-15T02:47:46.710Z,2.65
2023-04-15T02:50:13.365Z,1.75
2023-04-15T02:52:42.670Z,2.10
2023-04-15T02:55:10.091Z,2.42
2023-04-15T02:57:38.838Z,2.58
2023-04-15T03:00:09.617Z,2.22
2023-04-15T03:02:39.491Z,3.10
2023-04-15T03:05:06.923Z,2.22
2023-04-15T03:07:33.349Z,2.60
2023-04-15T03:10:01.204Z,2.63
2023-04-15T03:12:28.462Z,3.35
2023-04-15T03:14:56.511Z,2.58
2023-04-15T03:17:30.371Z,2.65
2023-04-15T03:19:56.972Z,3.05
2023-04-15T03:22:23.430Z,2.45
2023-04-15T03:24:52.330Z,2.33
2023-04-15T03:27:18.715Z,2.35
2023-04-15T03:29:45.305Z,2.17
2023-04-15T03:32:15.093Z,2.10
2023-04-15T03:34:42.163Z,2.08
2023-04-15T03:37:08.664Z,2.30
2023-04-15T03:39:35.630Z,2.63
2023-04-15T03:42:03.334Z,2.13
2023-04-15T03:44:30.486Z,2.15
2023-04-15T03:46:56.898Z,2.05
2023-04-15T03:49:24.408Z,2.20
2023-04-15T03:51:50.875Z,2.35
2023-04-15T03:54:17.229Z,2.30
2023-04-15T03:56:43.619Z,2.67
2023-04-15T03:59:10.021Z,2.42
2023-04-15T04:01:36.423Z,2.65
2023-04-15T04:04:02.926Z,2.47
2023-04-15T04:06:29.376Z,2.55
2023-04-15T04:08:56.589Z,2.10
2023-04-15T04:11:22.969Z,2.67
2023-04-15T04:13:49.423Z,3.13
2023-04-15T04:16:15.867Z,2.90
2023-04-15T04:18:42.320Z,4.60
2023-04-15T04:21:08.696Z,8.48
2023-04-15T04:23:35.506Z,7.40
2023-04-15T04:26:02.505Z,6.28
2023-04-15T04:28:28.858Z,6.13
2023-04-15T04:30:56.200Z,4.75
2023-04-15T04:33:22.671Z,4.18
2023-04-15T04:35:49.001Z,3.38
2023-04-15T04:38:15.421Z,2.47
2023-04-15T04:40:41.883Z,4.43
2023-04-15T04:43:08.327Z,3.72
2023-04-15T04:45:34.835Z,3.28
2023-04-15T04:48:01.405Z,3.63
2023-04-15T04:50:27.894Z,3.05
2023-04-15T04:52:54.258Z,3.17
2023-04-15T04:55:20.721Z,3.67
2023-04-15T04:57:47.264Z,3.15
2023-04-15T05:00:13.985Z,3.20
2023-04-15T05:02:42.553Z,2.40
2023-04-15T05:05:09.699Z,2.90
2023-04-15T05:07:36.167Z,3.70
2023-04-15T05:10:02.570Z,2.30
2023-04-15T05:12:28.993Z,2.47
2023-04-15T05:14:55.361Z,2.42
2023-04-15T05:17:21.918Z,2.08
2023-04-15T05:19:48.896Z,2.80
2023-04-15T05:22:15.452Z,2.83
2023-04-15T05:24:41.797Z,2.38
2023-04-15T05:27:08.508Z,2.35
2023-04-15T05:29:34.934Z,2.95
2023-04-15T05:32:01.620Z,2.33
2023-04-15T05:34:28.058Z,2.22
2023-04-15T05:36:54.440Z,2.55
2023-04-15T05:39:21.306Z,2.53
2023-04-15T05:41:47.855Z,3.08
2023-04-15T05:44:14.238Z,3.05
2023-04-15T05:46:40.915Z,3.60
2023-04-15T05:49:07.698Z,2.97
2023-04-15T05:51:34.096Z,2.53
2023-04-15T05:54:01.175Z,2.70
2023-04-15T05:56:27.605Z,3.22
2023-04-15T05:58:54.055Z,3.08
2023-04-15T06:01:20.737Z,2.95
2023-04-15T06:03:47.227Z,2.72
2023-04-15T06:06:14.258Z,2.17
2023-04-15T06:08:41.215Z,2.88
2023-04-15T06:11:07.615Z,3.65
2023-04-15T06:13:34.818Z,2.75
2023-04-15T06:16:01.391Z,3.05
2023-04-15T06:18:27.843Z,2.55
2023-04-15T06:20:54.220Z,2.88
2023-04-15T06:23:20.852Z,2.60
2023-04-15T06:25:47.214Z,2.80
2023-04-15T06:28:13.603Z,2.72
2023-04-15T06:30:40.362Z,2.40
2023-04-15T06:33:07.317Z,3.22
2023-04-15T06:35:33.700Z,2.58
2023-04-15T06:38:00.153Z,2.65
2023-04-15T06:40:26.772Z,2.60
2023-04-15T06:42:53.206Z,4.38
2023-04-15T06:45:19.867Z,3.60
2023-04-15T06:47:46.564Z,3.38
2023-04-15T06:50:13.426Z,2.92
2023-04-15T06:52:40.779Z,3.10
2023-04-15T06:55:07.908Z,3.30
2023-04-15T06:57:35.184Z,3.28
2023-04-15T07:00:01.953Z,3.05
2023-04-15T07:02:28.439Z,3.08
2023-04-15T07:04:55.465Z,3.60
2023-04-15T07:07:21.847Z,3.83
2023-04-15T07:09:48.367Z,3.80
2023-04-15T07:12:15.180Z,4.55
2023-04-15T07:14:41.599Z,4.20
2023-04-15T07:17:09.708Z,4.13
2023-04-15T07:19:36.456Z,4.45
2023-04-15T07:22:02.837Z,3.78
2023-04-15T07:24:29.354Z,4.28
2023-04-15T07:27:00.858Z,3.97
2023-04-15T07:29:27.799Z,3.90
2023-04-15T07:31:54.237Z,3.60
2023-04-15T07:34:20.944Z,4.70
2023-04-15T07:36:50.431Z,4.45
2023-04-15T07:39:16.801Z,4.97
2023-04-15T07:41:43.349Z,5.28
2023-04-15T07:44:10.037Z,5.07
2023-04-15T07:46:37.192Z,5.68
2023-04-15T07:49:04.276Z,6.32
2023-04-15T07:51:32.180Z,5.38
2023-04-15T07:53:58.819Z,5.50
2023-04-15T07:56:26.347Z,5.90
2023-04-15T07:58:53.117Z,4.90
2023-04-15T08:01:19.487Z,5.97
2023-04-15T08:03:46.212Z,5.05
2023-04-15T08:06:12.861Z,5.60
2023-04-15T08:08:39.230Z,5.18
2023-04-15T08:11:05.859Z,4.78
2023-04-15T08:13:32.317Z,4.40
2023-04-15T08:16:14.441Z,5.32
2023-04-15T08:18:41.155Z,4.80
2023-04-15T08:21:08.358Z,5.45
2023-04-15T08:23:34.772Z,6.32
2023-04-15T08:26:02.247Z,5.70
2023-04-15T08:28:28.670Z,5.93
2023-04-15T08:30:55.301Z,6.10
2023-04-15T08:33:21.842Z,5.80
2023-04-15T08:35:49.145Z,5.47
2023-04-15T08:38:15.520Z,7.38
2023-04-15T08:40:43.883Z,6.18
2023-04-15T08:43:15.666Z,5.38
2023-04-15T08:45:42.518Z,5.50
2023-04-15T08:48:12.622Z,6.43
2023-04-15T08:50:39.649Z,5.72
2023-04-15T08:53:07.552Z,4.60
2023-04-15T08:55:36.626Z,4.70
2023-04-15T08:58:03.018Z,4.70
2023-04-15T09:00:29.668Z,4.60
2023-04-15T09:02:56.837Z,4.88
2023-04-15T09:05:23.292Z,4.75
2023-04-15T09:07:51.260Z,4.47
2023-04-15T09:10:17.880Z,4.40
2023-04-15T09:12:44.400Z,4.20
2023-04-15T09:15:12.402Z,4.40
2023-04-15T09:17:45.571Z,3.85
2023-04-15T09:20:18.531Z,3.80
2023-04-15T09:25:29.151Z,3.85
2023-04-15T09:28:01.480Z,3.30
2023-04-15T09:30:28.971Z,3.22
2023-04-15T09:32:58.076Z,3.47
2023-04-15T09:35:26.174Z,3.17
2023-04-15T09:37:53.708Z,3.75
2023-04-15T09:40:36.408Z,3.47
2023-04-15T09:43:05.046Z,3.72
2023-04-15T09:45:32.638Z,2.83
2023-04-15T09:48:14.381Z,2.40
2023-04-15T09:50:42.637Z,3.28
2023-04-15T09:53:15.607Z,2.67
2023-04-15T09:58:26.305Z,2.67
2023-04-15T10:00:54.371Z,2.83
2023-04-15T10:03:26.441Z,2.70
2023-04-15T10:05:56.214Z,3.03
2023-04-15T10:08:32.754Z,3.20
2023-04-15T10:11:01.836Z,2.55
2023-04-15T10:13:33.297Z,4.15
2023-04-15T10:16:28.917Z,3.00
2023-04-15T10:18:56.932Z,2.10
2023-04-15T10:21:23.852Z,1.67
2023-04-15T10:23:50.470Z,0.95
2023-04-15T10:26:17.591Z,1.63
2023-04-15T10:28:45.155Z,1.00
2023-04-15T10:31:13.631Z,1.38
2023-04-15T10:33:41.993Z,0.80
2023-04-15T10:36:08.692Z,0.80
2023-04-15T10:38:43.177Z,0.75
2023-04-15T10:41:21.170Z,0.73
2023-04-15T10:43:54.605Z,0.73
2023-04-15T10:46:41.909Z,0.82
2023-04-15T10:49:10.845Z,0.63
2023-04-15T10:51:43.053Z,0.60
2023-04-15T10:54:14.427Z,0.82
2023-04-15T10:56:45.378Z,0.47
2023-04-15T10:59:12.046Z,0.90
2023-04-15T11:02:13.395Z,0.88
2023-04-15T11:04:53.526Z,0.77
2023-04-15T11:07:50.324Z,0.60
2023-04-15T11:10:26.129Z,1.10
2023-04-15T11:12:54.515Z,0.80
2023-04-15T11:15:37.756Z,1.25
2023-04-15T11:23:14.089Z,1.20
2023-04-15T11:25:42.754Z,0.93
2023-04-15T11:28:09.274Z,1.70
2023-04-15T11:30:37.428Z,0.95
2023-04-15T11:33:06.115Z,0.80
2023-04-15T11:35:33.308Z,1.38
2023-04-15T11:38:03.774Z,1.17
2023-04-15T11:40:31.515Z,0.85
2023-04-15T11:43:11.294Z,1.40
2023-04-15T11:45:39.071Z,1.50
2023-04-15T11:48:13.733Z,1.67
2023-04-15T11:50:41.128Z,1.20
2023-04-15T11:53:10.008Z,1.40
2023-04-15T11:55:43.237Z,1.40
2023-04-15T11:58:24.676Z,0.90
2023-04-15T12:00:57.049Z,1.50
2023-04-15T12:03:29.218Z,0.90
2023-04-15T12:06:06.189Z,1.20
2023-04-15T12:08:55.692Z,1.38
2023-04-15T12:11:36.092Z,1.20
2023-04-15T12:14:15.855Z,1.10
2023-04-15T12:16:50.001Z,1.25
2023-04-15T12:19:24.184Z,0.98
2023-04-15T12:21:50.912Z,0.82
2023-04-15T12:24:21.940Z,1.10
2023-04-15T12:26:57.853Z,1.20
2023-04-15T12:29:29.019Z,0.98
2023-04-15T12:32:09.489Z,0.50
2023-04-15T12:35:03.888Z,0.45
2023-04-15T12:37:30.555Z,0.55
2023-04-15T12:39:56.938Z,0.47
2023-04-15T12:42:23.453Z,0.60
2023-04-15T12:44:49.897Z,0.50
2023-04-15T12:47:16.368Z,0.70
2023-04-15T12:49:42.883Z,0.50
2023-04-15T12:52:09.337Z,0.50
2023-04-15T12:54:36.244Z,0.40
2023-04-15T12:57:05.991Z,0.60
2023-04-15T12:59:33.575Z,0.50
2023-04-15T13:02:01.182Z,0.70
2023-04-15T13:04:30.741Z,0.60
2023-04-15T13:06:57.878Z,0.68
2023-04-15T13:09:24.307Z,0.70
2023-04-15T13:11:51.001Z,0.60
2023-04-15T13:14:17.630Z,1.10
2023-04-15T13:16:44.134Z,0.73
2023-04-15T13:19:10.629Z,0.68
2023-04-15T13:21:37.105Z,0.57
2023-04-15T13:24:04.828Z,0.75
2023-04-15T13:26:31.910Z,1.30
2023-04-15T13:28:58.603Z,0.98
2023-04-15T13:31:25.407Z,0.80
2023-04-15T13:33:51.875Z,1.02
2023-04-15T13:36:18.318Z,0.88
2023-04-15T13:38:44.763Z,1.15
2023-04-15T13:41:11.180Z,0.73
2023-04-15T13:43:37.634Z,1.40
2023-04-15T13:46:04.216Z,0.95
2023-04-15T13:48:30.722Z,0.98
2023-04-15T13:50:57.212Z,0.98
2023-04-15T13:53:37.721Z,1.10
2023-04-15T13:56:06.409Z,1.00
2023-04-15T13:58:32.841Z,1.42
2023-04-15T14:00:59.328Z,0.93
2023-04-15T14:03:26.003Z,1.10
2023-04-15T14:05:55.887Z,0.98
2023-04-15T14:08:23.032Z,1.20
2023-04-15T14:10:49.541Z,1.05
2023-04-15T14:13:15.942Z,1.15
2023-04-15T14:15:42.376Z,1.08
2023-04-15T14:18:08.741Z,1.25
2023-04-15T14:20:35.352Z,1.10
2023-04-15T14:23:01.811Z,1.65
2023-04-15T14:25:33.784Z,1.38
2023-04-15T14:28:01.493Z,1.73
2023-04-15T14:30:27.998Z,1.48
2023-04-15T14:32:54.492Z,1.27
2023-04-15T14:35:21.142Z,1.50
2023-04-15T14:37:47.604Z,1.30
2023-04-15T14:40:14.100Z,1.10
2023-04-15T14:42:40.509Z,1.45
2023-04-15T14:45:07.502Z,1.60
2023-04-15T14:47:33.964Z,1.30
2023-04-15T14:50:00.674Z,1.80
2023-04-15T14:52:27.162Z,1.70
2023-04-15T14:54:53.515Z,1.30
2023-04-15T14:57:19.886Z,1.55
2023-04-15T14:59:46.314Z,1.80
2023-04-15T15:02:17.350Z,1.63
2023-04-15T15:04:52.952Z,1.77
2023-04-15T15:07:19.473Z,1.80
2023-04-15T15:09:46.053Z,1.70
2023-04-15T15:12:12.467Z,1.55
2023-04-15T15:14:38.873Z,1.70
2023-04-15T15:17:05.233Z,1.70
2023-04-15T15:19:31.756Z,1.70
2023-04-15T15:21:58.295Z,1.80
2023-04-15T15:24:24.751Z,1.70
2023-04-15T15:26:51.502Z,1.70
2023-04-15T15:29:17.918Z,1.60
2023-04-15T15:31:44.369Z,1.70
2023-04-15T15:34:10.773Z,1.60
2023-04-15T15:36:37.176Z,1.63
2023-04-15T15:39:04.948Z,1.65
2023-04-15T15:41:33.232Z,2.55
2023-04-15T15:43:59.916Z,2.10
2023-04-15T15:46:28.036Z,2.33
2023-04-15T15:48:54.889Z,3.60
2023-04-15T15:51:21.250Z,2.80
2023-04-15T15:53:47.842Z,2.20
2023-04-15T15:56:14.247Z,2.03
2023-04-15T15:58:41.685Z,2.28
2023-04-15T16:01:08.225Z,2.72
2023-04-15T16:03:34.752Z,2.63
2023-04-15T16:06:01.219Z,2.50
2023-04-15T16:08:27.970Z,15.70
2023-04-15T16:10:54.749Z,7.13
2023-04-15T16:13:22.008Z,5.18
2023-04-15T16:15:50.136Z,4.63
2023-04-15T16:18:17.224Z,4.68
2023-04-15T16:20:43.938Z,6.65
2023-04-15T16:23:17.214Z,3.80
2023-04-15T16:25:44.429Z,5.40
2023-04-15T16:28:25.184Z,12.38
2023-04-15T16:30:53.375Z,3.55
2023-04-15T16:33:19.760Z,3.33
2023-04-15T16:35:46.201Z,3.22
2023-04-15T16:38:12.578Z,3.28
2023-04-15T16:40:39.005Z,3.05
2023-04-15T16:43:07.458Z,3.00
2023-04-15T16:45:33.972Z,3.78
2023-04-15T16:48:00.531Z,3.55
2023-04-15T16:50:27.093Z,3.50
2023-04-15T16:52:53.458Z,3.20
2023-04-15T16:55:20.136Z,2.78
2023-04-15T16:57:58.795Z,4.07
2023-04-15T17:02:56.490Z,3.58
2023-04-15T17:05:23.054Z,3.45
2023-04-15T17:07:49.481Z,3.28
2023-04-15T17:10:16.138Z,3.72
2023-04-15T17:12:42.547Z,3.30
2023-04-15T17:15:09.515Z,2.90
2023-04-15T17:17:35.934Z,2.60
2023-04-15T17:20:02.365Z,3.42
2023-04-15T17:22:28.930Z,3.22
2023-04-15T17:24:55.346Z,4.10
2023-04-15T17:27:22.615Z,5.47
2023-04-15T17:29:49.049Z,15.30
2023-04-15T17:32:15.826Z,4.68
2023-04-15T17:34:49.475Z,3.38
2023-04-15T17:37:17.942Z,3.15
2023-04-15T17:39:44.376Z,3.40
2023-04-15T17:42:11.545Z,3.97
2023-04-15T17:44:38.038Z,3.38
2023-04-15T17:47:04.476Z,3.35
2023-04-15T17:49:31.234Z,3.90
2023-04-15T17:51:57.785Z,3.70
2023-04-15T17:54:24.176Z,3.95
2023-04-15T17:56:51.571Z,4.57
2023-04-15T17:59:18.304Z,3.75
2023-04-15T18:01:45.484Z,3.78
2023-04-15T18:04:12.378Z,3.75
2023-04-15T18:06:39.202Z,3.85
2023-04-15T18:09:08.684Z,3.50
2023-04-15T18:11:35.191Z,3.47
2023-04-15T18:14:03.721Z,3.95
2023-04-15T18:16:30.368Z,3.63
2023-04-15T18:18:56.895Z,3.67
2023-04-15T18:21:23.261Z,3.20
2023-04-15T18:23:49.636Z,3.58
2023-04-15T18:26:16.095Z,4.20
2023-04-15T18:28:42.537Z,3.45
2023-04-15T18:31:09.016Z,3.95
2023-04-15T18:33:35.736Z,3.83
2023-04-15T18:36:05.330Z,3.38
2023-04-15T18:38:31.851Z,3.83
2023-04-15T18:40:58.733Z,3.45
2023-04-15T18:43:25.228Z,3.20
2023-04-15T18:45:53.090Z,3.05
2023-04-15T18:48:19.788Z,2.80
2023-04-15T18:50:46.385Z,3.50
2023-04-15T18:53:12.770Z,3.13
2023-04-15T18:55:39.962Z,3.60
2023-04-15T18:58:08.929Z,3.33
2023-04-15T19:00:38.874Z,3.40
2023-04-15T19:03:06.211Z,3.28
2023-04-15T19:05:33.070Z,3.15
2023-04-15T19:07:59.792Z,3.20
2023-04-15T19:10:27.942Z,3.15
2023-04-15T19:12:55.083Z,3.55
2023-04-15T19:15:21.537Z,3.45
2023-04-15T19:17:48.000Z,3.72
2023-04-15T19:20:14.479Z,3.88
2023-04-15T19:22:41.585Z,3.53
2023-04-15T19:25:08.489Z,3.58
2023-04-15T19:27:34.932Z,4.22
2023-04-15T19:30:03.168Z,4.07
2023-04-15T19:32:29.804Z,4.60
2023-04-15T19:34:56.411Z,4.05
2023-04-15T19:37:22.814Z,4.20
2023-04-15T19:39:49.291Z,3.58
2023-04-15T19:42:15.718Z,3.85
2023-04-15T19:44:42.779Z,3.78
2023-04-15T19:47:10.457Z,3.95
2023-04-15T19:49:37.676Z,3.53
2023-04-15T19:52:04.636Z,3.35
2023-04-15T19:54:32.186Z,3.63
2023-04-15T19:56:59.081Z,3.40
2023-04-15T19:59:25.724Z,3.30
2023-04-15T20:01:52.845Z,3.45
2023-04-15T20:04:19.387Z,3.38
2023-04-15T20:06:46.020Z,3.50
2023-04-15T20:09:12.581Z,3.67
2023-04-15T20:12:45.939Z,3.10
2023-04-15T20:14:25.502Z,3.55
2023-04-15T20:16:51.921Z,3.53
2023-04-15T20:19:18.438Z,3.90
2023-04-15T20:21:45.294Z,3.60
2023-04-15T20:24:11.730Z,3.22
2023-04-15T20:26:38.117Z,3.30
2023-04-15T20:29:04.728Z,3.08
2023-04-15T20:31:31.272Z,3.25
2023-04-15T20:33:57.821Z,2.95
2023-04-15T20:36:24.286Z,3.00
2023-04-15T20:38:50.711Z,3.00
2023-04-15T20:41:17.113Z,2.85
2023-04-15T20:43:43.494Z,2.78
2023-04-15T20:46:20.504Z,3.30
2023-04-15T20:48:48.264Z,2.60
2023-04-15T20:51:15.169Z,2.38
2023-04-15T20:53:41.986Z,2.38
2023-04-15T20:56:08.476Z,2.30
2023-04-15T20:58:34.907Z,2.67
2023-04-15T21:01:01.983Z,2.05
2023-04-15T21:03:28.872Z,3.25
2023-04-15T21:05:55.652Z,2.47
2023-04-15T21:08:28.984Z,2.40
2023-04-15T21:10:56.554Z,3.20
2023-04-15T21:13:23.701Z,2.40
2023-04-15T21:15:53.308Z,2.78
2023-04-15T21:18:21.266Z,3.25
2023-04-15T21:20:59.316Z,3.22
2023-04-15T21:23:28.586Z,2.92
2023-04-15T21:25:55.649Z,3.20
2023-04-15T21:28:22.689Z,4.15
2023-04-15T21:30:49.475Z,4.72
2023-04-15T21:33:16.591Z,3.78
2023-04-15T21:35:42.957Z,3.75
2023-04-15T21:38:09.355Z,3.83
2023-04-15T21:40:40.213Z,3.58
2023-04-15T21:43:07.568Z,3.55
2023-04-15T21:45:34.783Z,3.00
2023-04-15T21:48:07.798Z,3.80
2023-04-15T21:50:38.338Z,4.25
2023-04-15T21:53:07.312Z,3.40
2023-04-15T21:55:33.798Z,3.83
2023-04-15T21:58:00.328Z,3.22
2023-04-15T22:00:26.719Z,3.63
2023-04-15T22:02:53.240Z,3.40
2023-04-15T22:05:19.715Z,3.70
2023-04-15T22:07:46.367Z,3.92
2023-04-15T22:10:12.766Z,3.70
2023-04-15T22:12:42.230Z,3.22
2023-04-15T22:15:09.166Z,3.25
2023-04-15T22:17:35.670Z,3.83
2023-04-15T22:20:02.602Z,3.40
2023-04-15T22:22:44.304Z,3.50
2023-04-15T22:25:11.598Z,3.50
2023-04-15T22:27:38.034Z,4.60
2023-04-15T22:30:05.007Z,4.07
2023-04-15T22:32:31.420Z,4.13
2023-04-15T22:34:57.850Z,3.60
2023-04-15T22:37:24.295Z,3.80
2023-04-15T22:39:51.708Z,3.83
2023-04-15T22:42:18.099Z,4.32
2023-04-15T22:44:44.559Z,4.20
2023-04-15T22:47:10.908Z,4.03
2023-04-15T22:49:37.302Z,3.78
2023-04-15T22:52:03.788Z,4.53
2023-04-15T22:54:30.262Z,5.72
2023-04-15T22:56:57.755Z,4.80
2023-04-15T22:59:24.374Z,5.80
2023-04-15T23:01:51.024Z,4.63
2023-04-15T23:04:25.134Z,4.68
2023-04-15T23:06:54.839Z,4.30
2023-04-15T23:09:21.411Z,4.63
2023-04-15T23:11:47.842Z,5.18
2023-04-15T23:14:14.228Z,5.53
2023-04-15T23:16:40.761Z,4.97
2023-04-15T23:19:07.530Z,5.85
2023-04-15T23:21:34.349Z,5.40
2023-04-15T23:24:00.697Z,5.47
2023-04-15T23:26:28.307Z,5.07
2023-04-15T23:28:54.731Z,5.32
2023-04-15T23:31:21.150Z,5.72
2023-04-15T23:33:47.606Z,4.70
2023-04-15T23:36:14.037Z,4.65
2023-04-15T23:38:40.364Z,4.90
2023-04-15T23:41:06.741Z,5.03
2023-04-15T23:43:33.461Z,5.75
2023-04-15T23:45:59.889Z,5.57
2023-04-15T23:48:26.389Z,5.35
2023-04-15T23:50:52.757Z,5.45
2023-04-15T23:53:19.155Z,5.45
2023-04-15T23:55:45.613Z,5.45
2023-04-15T23:58:12.186Z,5.70
